createdAt,value
2023-03-03T00:01:59.398Z,101840.00
2023-03-03T00:04:26.145Z,101848.00
2023-03-03T00:06:56.448Z,101858.00
2023-03-03T00:09:26.211Z,101855.00
2023-03-03T00:11:58.842Z,101853.00
2023-03-03T00:14:33.486Z,101858.00
2023-03-03T00:17:33.218Z,101853.00
2023-03-03T00:20:22.346Z,101845.00
2023-03-03T00:22:49.117Z,101847.00
2023-03-03T00:25:24.555Z,101848.00
2023-03-03T00:27:51.342Z,101829.00
2023-03-03T00:30:32.398Z,101822.00
2023-03-03T00:32:59.223Z,101826.00
2023-03-03T00:35:38.814Z,101833.00
2023-03-03T00:38:18.319Z,101825.00
2023-03-03T00:40:46.983Z,101838.00
2023-03-03T00:43:28.988Z,101829.00
2023-03-03T00:45:57.374Z,101824.00
2023-03-03T00:48:40.623Z,101820.00
2023-03-03T00:51:34.484Z,101828.00
2023-03-03T00:54:01.256Z,101817.00
2023-03-03T00:56:28.065Z,101825.00
2023-03-03T00:58:54.842Z,101820.00
2023-03-03T01:01:21.721Z,101816.00
2023-03-03T01:03:48.499Z,101812.00
2023-03-03T01:06:15.390Z,101811.00
2023-03-03T01:08:42.274Z,101798.00
2023-03-03T01:11:25.579Z,101804.00
2023-03-03T01:13:53.784Z,101808.00
2023-03-03T01:16:21.337Z,101810.00
2023-03-03T01:18:48.215Z,101797.00
2023-03-03T01:21:15.033Z,101796.00
2023-03-03T01:23:41.804Z,101797.00
2023-03-03T01:26:08.671Z,101801.00
2023-03-03T01:28:35.432Z,101780.00
2023-03-03T01:31:05.135Z,101794.00
2023-03-03T01:33:34.173Z,101793.00
2023-03-03T01:36:01.207Z,101787.00
2023-03-03T01:38:28.416Z,101788.00
2023-03-03T01:40:58.150Z,101775.00
2023-03-03T01:43:29.192Z,101776.00
2023-03-03T01:45:58.879Z,101777.00
2023-03-03T01:48:38.822Z,101776.00
2023-03-03T01:51:27.512Z,101781.00
2023-03-03T01:54:02.390Z,101770.00
2023-03-03T01:56:30.750Z,101766.00
2023-03-03T01:59:27.719Z,101768.00
2023-03-03T02:01:54.588Z,101770.00
2023-03-03T02:04:22.031Z,101763.00
2023-03-03T02:07:01.869Z,101770.00
2023-03-03T02:09:59.399Z,101783.00
2023-03-03T02:12:35.717Z,101781.00
2023-03-03T02:15:08.933Z,101790.00
2023-03-03T02:17:35.965Z,101786.00
2023-03-03T02:20:17.574Z,101785.00
2023-03-03T02:23:26.488Z,101789.00
2023-03-03T02:25:58.827Z,101792.00
2023-03-03T02:28:32.404Z,101783.00
2023-03-03T02:31:01.268Z,101790.00
2023-03-03T02:33:29.584Z,101792.00
2023-03-03T02:35:56.786Z,101789.00
2023-03-03T02:39:02.878Z,101779.00
2023-03-03T02:41:40.786Z,101777.00
2023-03-03T02:44:09.473Z,101784.00
2023-03-03T02:46:43.237Z,101790.00
2023-03-03T02:49:14.571Z,101787.00
2023-03-03T02:51:42.191Z,101796.00
2023-03-03T02:54:11.378Z,101784.00
2023-03-03T02:56:38.728Z,101777.00
2023-03-03T02:59:06.407Z,101782.00
2023-03-03T03:01:37.142Z,101778.00
2023-03-03T03:04:15.199Z,101792.00
2023-03-03T03:06:42.613Z,101787.00
2023-03-03T03:09:10.860Z,101786.00
2023-03-03T03:11:38.293Z,101796.00
2023-03-03T03:14:08.470Z,101782.00
2023-03-03T03:16:36.011Z,101802.00
2023-03-03T03:19:04.702Z,101803.00
2023-03-03T03:21:31.758Z,101816.00
2023-03-03T03:23:58.812Z,101815.00
2023-03-03T03:26:26.089Z,101816.00
2023-03-03T03:28:53.824Z,101819.00
2023-03-03T03:31:21.864Z,101817.00
2023-03-03T03:33:49.047Z,101815.00
2023-03-03T03:36:16.565Z,101818.00
2023-03-03T03:38:43.324Z,101829.00
2023-03-03T03:41:11.564Z,101827.00
2023-03-03T03:43:38.586Z,101814.00
2023-03-03T03:46:05.993Z,101810.00
2023-03-03T03:48:33.273Z,101800.00
2023-03-03T03:51:00.460Z,101809.00
2023-03-03T03:53:27.272Z,101809.00
2023-03-03T03:55:54.098Z,101801.00
2023-03-03T03:58:21.310Z,101800.00
2023-03-03T04:00:48.516Z,101787.00
2023-03-03T04:03:15.866Z,101782.00
2023-03-03T04:05:43.415Z,101782.00
2023-03-03T04:08:11.135Z,101781.00
2023-03-03T04:10:37.953Z,101783.00
2023-03-03T04:13:04.993Z,101785.00
2023-03-03T04:15:31.758Z,101771.00
2023-03-03T04:17:58.522Z,101772.00
2023-03-03T04:20:25.358Z,101769.00
2023-03-03T04:22:52.074Z,101777.00
2023-03-03T04:25:19.030Z,101775.00
2023-03-03T04:27:46.258Z,101769.00
2023-03-03T04:30:15.930Z,101781.00
2023-03-03T04:32:43.441Z,101770.00
2023-03-03T04:35:11.412Z,101773.00
2023-03-03T04:37:38.949Z,101780.00
2023-03-03T04:40:08.510Z,101767.00
2023-03-03T04:42:35.429Z,101766.00
2023-03-03T04:45:02.655Z,101776.00
2023-03-03T04:47:29.371Z,101774.00
2023-03-03T04:49:56.672Z,101767.00
2023-03-03T04:52:23.467Z,101765.00
2023-03-03T04:54:50.218Z,101769.00
2023-03-03T04:57:16.975Z,101779.00
2023-03-03T04:59:43.887Z,101786.00
2023-03-03T05:02:10.874Z,101768.00
2023-03-03T05:04:37.659Z,101766.00
2023-03-03T05:07:04.877Z,101779.00
2023-03-03T05:09:31.811Z,101767.00
2023-03-03T05:11:58.560Z,101771.00
2023-03-03T05:14:26.287Z,101782.00
2023-03-03T05:16:53.701Z,101771.00
2023-03-03T05:19:20.609Z,101762.00
2023-03-03T05:21:47.311Z,101766.00
2023-03-03T05:24:14.559Z,101758.00
2023-03-03T05:26:41.728Z,101758.00
2023-03-03T05:29:09.363Z,101768.00
2023-03-03T05:31:36.594Z,101768.00
2023-03-03T05:34:03.518Z,101777.00
2023-03-03T05:36:30.632Z,101770.00
2023-03-03T05:38:57.376Z,101780.00
2023-03-03T05:41:24.221Z,101790.00
2023-03-03T05:43:51.116Z,101793.00
2023-03-03T05:46:18.099Z,101789.00
2023-03-03T05:48:45.318Z,101799.00
2023-03-03T05:51:12.208Z,101796.00
2023-03-03T05:53:39.133Z,101805.00
2023-03-03T05:56:07.139Z,101787.00
2023-03-03T05:58:34.123Z,101799.00
2023-03-03T06:01:00.840Z,101782.00
2023-03-03T06:03:27.670Z,101794.00
2023-03-03T06:05:54.399Z,101795.00
2023-03-03T06:08:21.138Z,101801.00
2023-03-03T06:10:47.942Z,101790.00
2023-03-03T06:13:14.803Z,101791.00
2023-03-03T06:15:41.602Z,101784.00
2023-03-03T06:18:08.481Z,101792.00
2023-03-03T06:20:35.861Z,101805.00
2023-03-03T06:23:02.707Z,101805.00
2023-03-03T06:25:29.628Z,101806.00
2023-03-03T06:27:56.591Z,101807.00
2023-03-03T06:30:23.363Z,101823.00
2023-03-03T06:32:50.103Z,101813.00
2023-03-03T06:35:18.296Z,101804.00
2023-03-03T06:37:45.190Z,101817.00
2023-03-03T06:40:12.844Z,101814.00
2023-03-03T06:42:39.550Z,101820.00
2023-03-03T06:45:06.809Z,101814.00
2023-03-03T06:47:33.992Z,101824.00
2023-03-03T06:50:00.819Z,101821.00
2023-03-03T06:52:28.156Z,101820.00
2023-03-03T06:54:58.741Z,101832.00
2023-03-03T06:57:34.218Z,101841.00
2023-03-03T07:00:24.944Z,101848.00
2023-03-03T07:03:17.857Z,101848.00
2023-03-03T07:05:45.644Z,101855.00
2023-03-03T07:08:20.513Z,101841.00
2023-03-03T07:10:48.973Z,101844.00
2023-03-03T07:13:24.387Z,101840.00
2023-03-03T07:15:54.971Z,101854.00
2023-03-03T07:18:51.163Z,101856.00
2023-03-03T07:21:21.493Z,101870.00
2023-03-03T07:23:53.719Z,101863.00
2023-03-03T07:26:30.817Z,101869.00
2023-03-03T07:29:24.034Z,101859.00
2023-03-03T07:31:52.018Z,101874.00
2023-03-03T07:34:30.333Z,101877.00
2023-03-03T07:37:10.206Z,101878.00
2023-03-03T07:39:40.619Z,101875.00
2023-03-03T07:42:24.335Z,101877.00
2023-03-03T07:44:54.008Z,101871.00
2023-03-03T07:47:36.301Z,101880.00
2023-03-03T07:50:21.494Z,101879.00
2023-03-03T07:52:58.745Z,101885.00
2023-03-03T07:55:39.029Z,101882.00
2023-03-03T07:58:35.841Z,101885.00
2023-03-03T08:01:39.817Z,101883.00
2023-03-03T08:04:24.140Z,101884.00
2023-03-03T08:07:00.828Z,101884.00
2023-03-03T08:09:53.723Z,101884.00
2023-03-03T08:12:35.055Z,101886.00
2023-03-03T08:15:28.060Z,101887.00
2023-03-03T08:17:56.927Z,101870.00
2023-03-03T08:20:29.633Z,101877.00
2023-03-03T08:22:56.382Z,101876.00
2023-03-03T08:25:23.599Z,101873.00
2023-03-03T08:27:50.471Z,101869.00
2023-03-03T08:30:17.452Z,101872.00
2023-03-03T08:32:44.261Z,101877.00
2023-03-03T08:35:11.112Z,101878.00
2023-03-03T08:37:37.879Z,101870.00
2023-03-03T08:40:05.171Z,101877.00
2023-03-03T08:42:31.964Z,101881.00
2023-03-03T08:44:58.722Z,101885.00
2023-03-03T08:47:26.066Z,101878.00
2023-03-03T08:49:54.403Z,101878.00
2023-03-03T08:52:21.372Z,101883.00
2023-03-03T08:54:48.153Z,101887.00
2023-03-03T08:57:15.137Z,101884.00
2023-03-03T08:59:41.838Z,101892.00
2023-03-03T09:02:08.876Z,101883.00
2023-03-03T09:04:35.823Z,101875.00
2023-03-03T09:07:02.647Z,101881.00
2023-03-03T09:09:29.385Z,101871.00
2023-03-03T09:12:07.500Z,101871.00
2023-03-03T09:14:34.217Z,101859.00
2023-03-03T09:17:03.366Z,101862.00
2023-03-03T09:19:37.490Z,101870.00
2023-03-03T09:22:24.468Z,101853.00
2023-03-03T09:24:56.928Z,101858.00
2023-03-03T09:27:30.568Z,101875.00
2023-03-03T09:30:29.889Z,101870.00
2023-03-03T09:32:58.120Z,101874.00
2023-03-03T09:35:41.173Z,101877.00
2023-03-03T09:38:29.651Z,101882.00
2023-03-03T09:41:41.576Z,101894.00
2023-03-03T09:44:37.229Z,101892.00
2023-03-03T09:47:27.964Z,101880.00
2023-03-03T09:50:15.824Z,101887.00
2023-03-03T09:53:05.712Z,101878.00
2023-03-03T09:55:43.833Z,101877.00
2023-03-03T09:58:58.783Z,101878.00
2023-03-03T10:02:23.859Z,101877.00
2023-03-03T10:05:25.809Z,101862.00
2023-03-03T10:08:09.972Z,101876.00
2023-03-03T10:11:00.026Z,101874.00
2023-03-03T10:13:44.561Z,101888.00
2023-03-03T10:17:04.009Z,101880.00
2023-03-03T10:19:40.516Z,101877.00
2023-03-03T10:22:27.730Z,101885.00
2023-03-03T10:25:27.989Z,101880.00
2023-03-03T10:28:01.977Z,101875.00
2023-03-03T10:30:58.565Z,101874.00
2023-03-03T10:33:42.697Z,101870.00
2023-03-03T10:36:43.825Z,101870.00
2023-03-03T10:39:45.335Z,101875.00
2023-03-03T10:42:28.826Z,101873.00
2023-03-03T10:45:45.930Z,101873.00
2023-03-03T10:49:08.325Z,101871.00
2023-03-03T10:52:13.171Z,101879.00
2023-03-03T10:55:23.292Z,101880.00
2023-03-03T10:58:15.084Z,101881.00
2023-03-03T11:01:03.891Z,101861.00
2023-03-03T11:03:41.823Z,101889.00
2023-03-03T11:06:38.328Z,101881.00
2023-03-03T11:09:43.624Z,101881.00
2023-03-03T11:12:21.437Z,101874.00
2023-03-03T11:15:24.328Z,101876.00
2023-03-03T11:18:26.414Z,101870.00
2023-03-03T11:21:29.706Z,101872.00
2023-03-03T11:24:26.120Z,101875.00
2023-03-03T11:27:06.839Z,101864.00
2023-03-03T11:30:20.003Z,101872.00
2023-03-03T11:33:06.320Z,101870.00
2023-03-03T11:36:03.702Z,101876.00
2023-03-03T11:38:50.465Z,101863.00
2023-03-03T11:41:29.288Z,101863.00
2023-03-03T11:44:17.120Z,101860.00
2023-03-03T11:47:00.266Z,101854.00
2023-03-03T11:49:51.902Z,101859.00
2023-03-03T11:52:31.803Z,101859.00
2023-03-03T11:55:32.024Z,101854.00
2023-03-03T11:58:27.623Z,101852.00
2023-03-03T12:01:23.132Z,101844.00
2023-03-03T12:04:09.712Z,101847.00
2023-03-03T12:07:18.702Z,101831.00
2023-03-03T12:10:07.008Z,101833.00
2023-03-03T12:12:43.707Z,101829.00
2023-03-03T12:15:28.692Z,101818.00
2023-03-03T12:18:12.626Z,101820.00
2023-03-03T12:21:16.023Z,101809.00
2023-03-03T12:24:00.181Z,101819.00
2023-03-03T12:26:47.930Z,101802.00
2023-03-03T12:29:54.052Z,101798.00
2023-03-03T12:33:11.106Z,101800.00
2023-03-03T12:36:14.482Z,101809.00
2023-03-03T12:39:11.992Z,101797.00
2023-03-03T12:42:07.152Z,101793.00
2023-03-03T12:45:11.116Z,101806.00
2023-03-03T12:47:50.768Z,101796.00
2023-03-03T12:50:36.442Z,101796.00
2023-03-03T12:53:24.382Z,101800.00
2023-03-03T12:59:03.228Z,101790.00
2023-03-03T13:01:48.904Z,101790.00
2023-03-03T13:04:42.584Z,101784.00
2023-03-03T13:07:46.130Z,101774.00
2023-03-03T13:10:35.288Z,101776.00
2023-03-03T13:13:18.583Z,101786.00
2023-03-03T13:16:06.354Z,101773.00
2023-03-03T13:18:51.488Z,101765.00
2023-03-03T13:21:36.798Z,101774.00
2023-03-03T13:24:33.413Z,101768.00
2023-03-03T13:27:15.272Z,101768.00
2023-03-03T13:30:00.500Z,101782.00
2023-03-03T13:32:47.222Z,101768.00
2023-03-03T13:35:32.795Z,101763.00
2023-03-03T13:38:03.994Z,101769.00
2023-03-03T13:40:50.343Z,101762.00
2023-03-03T13:43:29.645Z,101770.00
2023-03-03T13:46:18.051Z,101765.00
2023-03-03T13:49:18.613Z,101759.00
2023-03-03T13:52:08.838Z,101753.00
2023-03-03T13:55:08.137Z,101738.00
2023-03-03T13:57:53.640Z,101740.00
2023-03-03T14:00:44.150Z,101748.00
2023-03-03T14:03:45.205Z,101740.00
2023-03-03T14:06:29.691Z,101746.00
2023-03-03T14:09:31.293Z,101742.00
2023-03-03T14:12:19.461Z,101737.00
2023-03-03T14:14:57.929Z,101735.00
2023-03-03T14:18:09.607Z,101734.00
2023-03-03T14:20:47.083Z,101727.00
2023-03-03T14:23:23.109Z,101730.00
2023-03-03T14:26:08.545Z,101723.00
2023-03-03T14:28:48.432Z,101711.00
2023-03-03T14:31:22.061Z,101726.00
2023-03-03T14:34:27.281Z,101713.00
2023-03-03T14:37:27.394Z,101701.00
2023-03-03T14:40:09.379Z,101712.00
2023-03-03T14:42:53.735Z,101708.00
2023-03-03T14:45:32.737Z,101709.00
2023-03-03T14:48:10.992Z,101705.00
2023-03-03T14:50:41.590Z,101696.00
2023-03-03T14:53:36.723Z,101688.00
2023-03-03T14:56:34.547Z,101686.00
2023-03-03T14:59:23.829Z,101681.00
2023-03-03T15:02:29.617Z,101678.00
2023-03-03T15:05:17.877Z,101682.00
2023-03-03T15:07:56.746Z,101676.00
2023-03-03T15:10:51.389Z,101682.00
2023-03-03T15:13:20.891Z,101682.00
2023-03-03T15:16:18.037Z,101670.00
2023-03-03T15:20:06.658Z,101668.00
2023-03-03T15:23:09.964Z,101669.00
2023-03-03T15:26:10.784Z,101673.00
2023-03-03T15:29:34.417Z,101672.00
2023-03-03T15:32:06.591Z,101665.00
2023-03-03T15:34:51.575Z,101659.00
2023-03-03T15:37:32.993Z,101655.00
2023-03-03T15:40:29.545Z,101654.00
2023-03-03T15:43:25.132Z,101658.00
2023-03-03T15:46:21.347Z,101651.00
2023-03-03T15:49:21.305Z,101658.00
2023-03-03T15:52:12.475Z,101654.00
2023-03-03T15:55:07.279Z,101649.00
2023-03-03T15:58:14.113Z,101651.00
2023-03-03T16:01:00.569Z,101643.00
2023-03-03T16:03:36.411Z,101640.00
2023-03-03T16:06:30.197Z,101647.00
2023-03-03T16:09:19.286Z,101631.00
2023-03-03T16:12:25.272Z,101636.00
2023-03-03T16:15:18.417Z,101638.00
2023-03-03T16:18:10.741Z,101629.00
2023-03-03T16:21:03.440Z,101636.00
2023-03-03T16:23:51.824Z,101631.00
2023-03-03T16:27:04.684Z,101628.00
2023-03-03T16:29:37.543Z,101631.00
2023-03-03T16:32:43.701Z,101635.00
2023-03-03T16:35:24.931Z,101625.00
2023-03-03T16:38:01.526Z,101638.00
2023-03-03T16:41:14.331Z,101635.00
2023-03-03T16:44:30.969Z,101636.00
2023-03-03T16:47:18.278Z,101623.00
2023-03-03T16:50:26.368Z,101624.00
2023-03-03T16:53:45.269Z,101627.00
2023-03-03T16:56:33.911Z,101622.00
2023-03-03T16:59:33.848Z,101629.00
2023-03-03T17:02:55.819Z,101630.00
2023-03-03T17:05:41.563Z,101622.00
2023-03-03T17:08:38.572Z,101628.00
2023-03-03T17:11:37.615Z,101630.00
2023-03-03T17:14:19.761Z,101631.00
2023-03-03T17:17:01.058Z,101628.00
2023-03-03T17:20:00.687Z,101632.00
2023-03-03T17:22:47.683Z,101616.00
2023-03-03T17:25:46.045Z,101617.00
2023-03-03T17:28:32.210Z,101615.00
2023-03-03T17:31:31.984Z,101625.00
2023-03-03T17:34:24.084Z,101627.00
2023-03-03T17:37:22.027Z,101619.00
2023-03-03T17:40:38.291Z,101620.00
2023-03-03T17:43:30.927Z,101619.00
2023-03-03T17:46:04.537Z,101618.00
2023-03-03T17:49:10.078Z,101616.00
2023-03-03T17:51:59.660Z,101615.00
2023-03-03T17:54:52.099Z,101615.00
2023-03-03T17:58:00.851Z,101625.00
2023-03-03T18:00:35.061Z,101605.00
2023-03-03T18:03:41.272Z,101614.00
2023-03-03T18:06:58.574Z,101595.00
2023-03-03T18:09:37.991Z,101604.00
2023-03-03T18:12:13.933Z,101612.00
2023-03-03T18:15:06.783Z,101603.00
2023-03-03T18:18:17.928Z,101601.00
2023-03-03T18:21:01.955Z,101597.00
2023-03-03T18:23:42.204Z,101602.00
2023-03-03T18:26:35.312Z,101591.00
2023-03-03T18:29:17.008Z,101587.00
2023-03-03T18:32:20.072Z,101590.00
2023-03-03T18:34:47.137Z,101578.00
2023-03-03T18:37:39.885Z,101585.00
2023-03-03T18:40:09.369Z,101579.00
2023-03-03T18:42:44.258Z,101577.00
2023-03-03T18:45:20.234Z,101577.00
2023-03-03T18:48:13.844Z,101585.00
2023-03-03T18:50:44.818Z,101581.00
2023-03-03T18:53:28.031Z,101577.00
2023-03-03T18:55:59.848Z,101584.00
2023-03-03T18:58:26.638Z,101575.00
2023-03-03T19:01:00.384Z,101585.00
2023-03-03T19:03:54.511Z,101579.00
2023-03-03T19:06:42.229Z,101582.00
2023-03-03T19:09:17.685Z,101569.00
2023-03-03T19:11:55.860Z,101580.00
2023-03-03T19:14:29.585Z,101576.00
2023-03-03T19:17:40.364Z,101570.00
2023-03-03T19:20:18.490Z,101572.00
2023-03-03T19:22:49.962Z,101554.00
2023-03-03T19:25:28.218Z,101563.00
2023-03-03T19:28:29.205Z,101560.00
2023-03-03T19:31:49.513Z,101558.00
2023-03-03T19:34:50.040Z,101564.00
2023-03-03T19:37:48.410Z,101563.00
2023-03-03T19:40:37.137Z,101557.00
2023-03-03T19:43:52.080Z,101550.00
2023-03-03T19:46:55.914Z,101558.00
2023-03-03T19:50:05.337Z,101554.00
2023-03-03T19:53:24.038Z,101554.00
2023-03-03T19:56:20.897Z,101552.00
2023-03-03T19:59:13.784Z,101554.00
2023-03-03T20:01:55.994Z,101546.00
2023-03-03T20:04:57.876Z,101537.00
2023-03-03T20:07:44.468Z,101545.00
2023-03-03T20:10:45.403Z,101548.00
2023-03-03T20:13:41.319Z,101549.00
2023-03-03T20:16:28.716Z,101538.00
2023-03-03T20:19:17.548Z,101544.00
2023-03-03T20:22:11.407Z,101541.00
2023-03-03T20:24:55.868Z,101527.00
2023-03-03T20:27:47.567Z,101523.00
2023-03-03T20:30:25.086Z,101535.00
2023-03-03T20:33:18.960Z,101536.00
2023-03-03T20:36:13.720Z,101530.00
2023-03-03T20:39:08.451Z,101529.00
2023-03-03T20:41:58.735Z,101522.00
2023-03-03T20:44:47.045Z,101535.00
2023-03-03T20:48:23.944Z,101540.00
2023-03-03T20:51:14.002Z,101532.00
2023-03-03T20:54:18.313Z,101525.00
2023-03-03T20:57:05.955Z,101509.00
2023-03-03T20:59:40.738Z,101519.00
2023-03-03T21:02:39.798Z,101514.00
2023-03-03T21:05:18.717Z,101520.00
2023-03-03T21:07:54.428Z,101511.00
2023-03-03T21:10:31.215Z,101516.00
2023-03-03T21:13:36.970Z,101521.00
2023-03-03T21:16:10.459Z,101512.00
2023-03-03T21:18:37.512Z,101508.00
2023-03-03T21:21:05.167Z,101511.00
2023-03-03T21:23:32.002Z,101497.00
2023-03-03T21:25:59.576Z,101509.00
2023-03-03T21:28:35.461Z,101496.00
2023-03-03T21:31:17.371Z,101497.00
2023-03-03T21:33:57.786Z,101496.00
2023-03-03T21:36:36.207Z,101493.00
2023-03-03T21:39:22.370Z,101491.00
2023-03-03T21:42:07.430Z,101488.00
2023-03-03T21:44:50.162Z,101494.00
2023-03-03T21:47:24.035Z,101486.00
2023-03-03T21:49:52.833Z,101482.00
2023-03-03T21:52:22.471Z,101489.00
2023-03-03T21:54:51.954Z,101481.00
2023-03-03T21:57:18.980Z,101476.00
2023-03-03T21:59:45.887Z,101476.00
2023-03-03T22:02:13.354Z,101483.00
2023-03-03T22:04:41.122Z,101469.00
2023-03-03T22:07:09.545Z,101469.00
2023-03-03T22:09:37.464Z,101458.00
2023-03-03T22:12:06.035Z,101454.00
2023-03-03T22:14:33.201Z,101457.00
2023-03-03T22:17:00.165Z,101449.00
2023-03-03T22:19:26.944Z,101443.00
2023-03-03T22:21:53.711Z,101451.00
2023-03-03T22:24:20.454Z,101449.00
2023-03-03T22:26:47.301Z,101448.00
2023-03-03T22:29:16.730Z,101438.00
2023-03-03T22:31:43.461Z,101439.00
2023-03-03T22:34:10.441Z,101438.00
2023-03-03T22:36:37.191Z,101428.00
2023-03-03T22:39:04.070Z,101431.00
2023-03-03T22:41:31.844Z,101432.00
2023-03-03T22:43:58.626Z,101427.00
2023-03-03T22:46:26.167Z,101435.00
2023-03-03T22:48:54.189Z,101422.00
2023-03-03T22:51:22.160Z,101416.00
2023-03-03T22:53:49.044Z,101416.00
2023-03-03T22:56:15.785Z,101413.00
2023-03-03T22:58:42.524Z,101408.00
2023-03-03T23:01:09.245Z,101396.00
2023-03-03T23:03:37.223Z,101393.00
2023-03-03T23:06:04.463Z,101381.00
2023-03-03T23:08:31.213Z,101387.00
2023-03-03T23:10:57.999Z,101383.00
2023-03-03T23:13:26.956Z,101382.00
2023-03-03T23:15:53.793Z,101382.00
2023-03-03T23:18:20.571Z,101379.00
2023-03-03T23:20:47.286Z,101375.00
2023-03-03T23:23:14.008Z,101357.00
2023-03-03T23:25:40.790Z,101362.00
2023-03-03T23:28:08.017Z,101359.00
2023-03-03T23:30:34.946Z,101355.00
2023-03-03T23:33:01.712Z,101351.00
2023-03-03T23:35:28.497Z,101351.00
2023-03-03T23:37:55.260Z,101348.00
2023-03-03T23:40:22.407Z,101346.00
2023-03-03T23:42:49.805Z,101336.00
2023-03-03T23:45:16.869Z,101346.00
2023-03-03T23:47:55.553Z,101365.00
2023-03-03T23:50:22.338Z,101343.00
2023-03-03T23:52:49.116Z,101346.00
2023-03-03T23:55:16.121Z,101336.00
2023-03-03T23:57:42.881Z,101350.00
